Sergio Caceda

Scout - Sporting Cristal
3 Dez 2028
Sonntag
Verarbeitung

Persönlichkeit

Anpassungsfähigkeit (14) Ehrgeiz (4) Kontroverse (13) Loyalität (15) Druck (15) Professionalität (16) Fairness (17) Temperament (3)

Profil

Trainerstil Demokratisch
Lizenz Kontinentale C
Entschlossenheit 6
Menschenführung 7
Motivation 10
Disziplin 9
Arbeitszufriedenheit
100%
Ermüdung
0%
Rolle Scout
Gehalt 25.2K p/W
Vertrag 14.03.2029

Leistung

Verhalten Gut
Trainingseffektivität
39%
Spielerentwicklung
40%
Verletzungsprävention
65%
Taktische Umsetzung
25%

Letzte Ereignisse

Nahm an einer Scouting-Besprechung teil jetzt
Empfahl ein Transferziel jetzt
Empfahl ein Transferziel jetzt
Empfahl ein Transferziel 7T her
Spieler begutachtet 7T her
Spieler begutachtet 7T her
Spieler begutachtet 7T her
Spieler begutachtet 7T her

Aktuell beobachtet

123
Spieler Verein Status Fähigkeit Vertrauen Beobachtet Zuletzt beobachtet Letzte Stimme
Celías Ingenthron Platense Aktiv 120 / 128 40% 10 28.11.2028 -
Gideon Manaseh Ikorodu City Aktiv 95 / 103 40% 6 28.11.2028 -
Mateo Godoy Zira Aktiv 92 / 86 40% 2 28.11.2028 -
Máximo Munarriz San Telmo Aktiv 101 / 101 40% 3 26.11.2028 -
Tiago Gordillo San Miguel Aktiv 87 / 96 40% 5 26.11.2028 -
Matías Satas Grimsby Town Aktiv 104 / 117 40% 2 26.11.2028 -
Óscar Hinojosa Metropolitanos Aktiv 87 / 84 40% 4 25.11.2028 -
Tobías Andrada River Plate Aktiv 117 / 121 40% 2 25.11.2028 -
Mauro Matorras Central Norte Aktiv 94 / 96 40% 2 25.11.2028 -
Joel Ezra Enyimba Aktiv 95 / 104 40% 6 24.11.2028 -
Mateo Caballero Defensor Sporting Aktiv 97 / 109 40% 2 24.11.2028 -
José Neto Benfica Aktiv 125 / 126 40% 1 24.11.2028 -
Tyler Fletcher Rotherham United Aktiv 113 / 123 40% 5 21.11.2028 -
Germán Barbas Racing Santander Aktiv 126 / 131 40% 3 21.11.2028 -
Lucas Nicol Mjondalen Aktiv 79 / 82 40% 2 21.11.2028 -
Yury Oyarzo Racing Aktiv 93 / 109 40% 5 18.11.2028 -
Felipe Pujol Vélez Aktiv 106 / 121 40% 3 18.11.2028 -
Matías Magdaleno Estudiantes Aktiv 112 / 122 40% 4 13.11.2028 -
Ivan Borges Defensores Aktiv 85 / 89 40% 2 13.11.2028 -
Anderson Acevedo Bogota Aktiv 86 / 97 40% 4 10.11.2028 -
Malte Hallin GIF Sundsvall Aktiv 90 / 108 40% 1 10.11.2028 -
Felipe Varela Trujillanos Aktiv 94 / 92 40% 2 08.11.2028 -
Davinchi Getafe Aktiv 134 / 131 40% 2 08.11.2028 -
Tyson Pearce St. Louis CITY SC Aktiv 96 / 103 40% 1 08.11.2028 -
Benito Paklayan Alvarado Aktiv 89 / 98 40% 2 06.11.2028 -
Sergio Martínez Real Madrid Aktiv 126 / 136 40% 1 06.11.2028 -
Mateo Faure BATE Aktiv 96 / 89 40% 4 04.11.2028 -
Máximo Magnoli Ferro Carril Oeste Aktiv 92 / 95 40% 2 03.11.2028 -
Santino Baldassarri Orenburg Aktiv 81 / 91 40% 1 03.11.2028 -
Noah Markmann Esbjerg Aktiv 118 / 120 40% 1 03.11.2028 -
Joaquín Salas Reading Aktiv 103 / 98 40% 1 31.10.2028 -
Estanislao López Colón Aktiv 96 / 103 40% 5 27.10.2028 -
Cayetano Santarelli BATE Aktiv 94 / 103 40% 2 27.10.2028 -
Giaco Garombo Sheffield Wednesday Aktiv 103 / 120 40% 1 26.10.2028 -
Felipe Obradovich Ferro Carril Oeste Aktiv 106 / 115 40% 4 22.10.2028 -
Juan Camilo Córdoba Deportivo Pereira Aktiv 88 / 95 40% 3 22.10.2028 -
Santiago Espíndola River Plate Aktiv 110 / 128 40% 1 18.10.2028 -
Aaron Branca Artigas Aktiv 81 / 93 40% 1 16.10.2028 -
Agustín Medina Lanús Aktiv 120 / 125 40% 3 15.10.2028 -
Hian Rincón Once Caldas Aktiv 97 / 103 40% 1 14.10.2028 -
Aytor Herrera Mineros de Guayana Aktiv 89 / 97 40% 3 13.10.2028 -
Milan Roki Cobresal Aktiv 83 / 84 40% 1 13.10.2028 -
Renato Morales Cobresal Aktiv 86 / 80 40% 1 13.10.2028 -
Diego Cheuquepal Racing Aktiv 107 / 106 40% 3 12.10.2028 -
Ignacio Fernández Boston River Aktiv 88 / 97 40% 1 09.10.2028 -
Lautaro Dufur Juventud Aktiv 102 / 104 40% 5 08.10.2028 -
Alejandro Tapia Central Norte Aktiv 88 / 95 40% 3 06.10.2028 -
Tobías Ramírez River Plate Aktiv 134 / 127 40% 2 06.10.2028 -
Samuel Molano Patriotas Aktiv 89 / 87 40% 1 06.10.2028 -
Mauricio Ponce Quilmes Aktiv 93 / 101 40% 1 05.10.2028 -
Alejandro Almaraz NK Celje Aktiv 118 / 121 40% 3 29.09.2028 -
Luciano Posadas Central Córdoba SdE Aktiv 96 / 110 40% 2 27.09.2028 -
Samuel Córdoba Depor Aktiv 90 / 99 40% 1 27.09.2028 -
Leandro Alegre Los Andes Aktiv 83 / 95 40% 1 25.09.2028 -
Luis Otávio Orlando City Aktiv 112 / 122 40% 3 22.09.2028 -
Hosea Michael Remo Stars Aktiv 85 / 93 40% 6 18.09.2028 -
Andrés Cuenca Como Aktiv 112 / 119 40% 1 18.09.2028 -
Facundo Balatti Penarol Aktiv 99 / 114 40% 1 18.09.2028 -
Lucas Camejo River Plate Aktiv 86 / 93 40% 3 11.09.2028 -
Sebastian Rodriguez Houston Dynamo Aktiv 118 / 135 40% 1 04.09.2028 -
Francisco Machis Llaneros Aktiv 88 / 95 40% 2 30.08.2028 -
Mohammed Habib Sarwari Kariobangi Sharks Aktiv 70 / 79 40% 2 30.08.2028 -
Peyton Miller New England Revolution Aktiv 115 / 121 40% 1 29.08.2028 -
Santino Mambrín Instituto Aktiv 88 / 104 40% 1 29.08.2028 -
Abubakar Adams Aduana Stars Aktiv 93 / 101 40% 2 26.08.2028 -
Kwesi Sorotu Badori Berekum Chelsea Aktiv 100 / 109 40% 1 26.08.2028 -
Gastón Rodríguez Racing Aktiv 82 / 94 40% 1 26.08.2028 -
Francisco Arias Gimnasia y Esgrima Aktiv 87 / 99 40% 1 25.08.2028 -
David Fernande PWD Bamenda Aktiv 78 / 84 40% 1 11.08.2028 -
Jan Bürger Northampton Town Aktiv 121 / 133 40% 5 06.08.2028 -
Diego Vargas Universidad de Concepcion Aktiv 98 / 101 40% 2 05.08.2028 -
Riquelme Thompson-Jones Accrington Stanley Aktiv 112 / 110 40% 1 05.08.2028 -
Khama Mabunda Platinum Stars Aktiv 80 / 90 40% 1 26.07.2028 -
Musa Danjuma Umraniyespor Aktiv 103 / 101 40% 4 24.07.2028 -
Federico Matarán Giana Erminio Aktiv 114 / 104 40% 2 24.07.2028 -
Daniel Banjaqui Benfica Aktiv 129 / 139 40% 3 18.07.2028 -
Kiani Inge Groningen Aktiv 116 / 127 40% 3 15.07.2028 -
Thijs Kraaijeveld USM Alger Aktiv 120 / 120 40% 3 14.07.2028 -
Martim Cunha Porto Aktiv 108 / 106 40% 3 04.07.2028 -
Nicolò Moranduzzo Renate Aktiv 92 / 99 40% 1 04.07.2028 -
Nazareno Roselli Defensa y Justicia Aktiv 114 / 128 40% 2 29.06.2028 -
Tobiáš Pališčák Zlin Aktiv 97 / 100 40% 2 28.06.2028 -
Lamine Bèye Portimonense Aktiv 106 / 120 40% 2 21.06.2028 -
Josh Nichols Oldham Athletic Aktiv 115 / 134 40% 3 20.06.2028 -
Dmytro Strilchuk Podillia Aktiv 93 / 95 40% 1 19.06.2028 -
Alan Cantero Juan Aurich Aktiv 123 / 118 79% 1 12.06.2028 Befürworten
Francisco Fernandes Porto Aktiv 103 / 115 40% 1 10.05.2028 -
Andrea Luongo Trento Aktiv 91 / 116 40% 1 10.05.2028 -
Siyabonga Mabena Bidvest Wits Aktiv 116 / 118 40% 2 09.05.2028 -
Gabriel Mec Feirense Aktiv 132 / 132 40% 2 09.05.2028 -
Ryan McAidoo Oldham Athletic Aktiv 129 / 131 40% 1 09.05.2028 -
Luca Meirelles Kudrivka Aktiv 134 / 126 40% 2 08.05.2028 -
Davide Atzeni Gubbio Aktiv 96 / 98 40% 1 08.05.2028 -
Jeremías Merlo Gimnasia La Plata Aktiv 122 / 119 40% 1 08.05.2028 -
Igor Tyjon Barrow AFC Aktiv 113 / 114 40% 2 07.05.2028 -
Vincenzo Damiano Atalanta Aktiv 95 / 113 40% 1 05.05.2028 -
Ibrahim Fullah Charlton Athletic Aktiv 131 / 115 40% 1 03.05.2028 -
Jake Evans Crewe Alexandra Aktiv 114 / 130 40% 1 03.05.2028 -
Henrique Carmo Sochi Aktiv 136 / 122 40% 1 03.05.2028 -
Luca Williams-Barnett Walsall Aktiv 121 / 130 40% 4 01.05.2028 -
André Miranda Porto Aktiv 106 / 120 40% 1 01.05.2028 -
Kubrat Onasci Septemvri Aktiv 93 / 109 40% 1 28.04.2028 -
Lisandro Piñero Banfield Aktiv 125 / 132 40% 2 25.04.2028 -
Bernardo Lima Porto Aktiv 107 / 118 40% 1 25.04.2028 -
Halam Loboa Sevilla Aktiv 125 / 122 40% 2 23.04.2028 -
Gomolemo Kekana Maritzburg United Aktiv 109 / 107 40% 1 23.04.2028 -
Ángel Aguayo Sol de America Aktiv 97 / 97 40% 1 23.04.2028 -
Ben Broggio Mansfield Town Aktiv 100 / 119 40% 1 20.04.2028 -
Bence Szakos Aris Aktiv 102 / 107 40% 1 19.04.2028 -
Matvey Bardachev Zenit Aktiv 109 / 108 40% 1 14.04.2028 -
Andrea Bertoncini Triestina Aktiv 98 / 107 40% 1 14.04.2028 -
Miguel Figueiredo Benfica Aktiv 113 / 135 40% 2 10.04.2028 -
Olivier Leroux Mouscron Aktiv 105 / 97 40% 1 10.04.2028 -
Andrey Ivlev Nizhniy Novgorod Aktiv 119 / 119 40% 1 10.04.2028 -
Artem Luttsev Saturn Aktiv 78 / 69 40% 1 08.04.2028 -
Amine Boukamir Charleroi Aktiv 104 / 122 40% 1 07.04.2028 -
Olivier Mambwa Young Boys Aktiv 108 / 119 40% 1 07.04.2028 -
Lisandro Alzugaray Universitario Aktiv 118 / 117 76% 1 01.12.2027 Befürworten
Godwin Oham Warri Wolves Aktiv 93 / 87 40% 2 09.11.2027 -
Edvard Pettersen Sandefjord Aktiv 106 / 113 40% 1 09.11.2027 -
Matías Canedo Rampla Juniors Aktiv 80 / 84 40% 1 04.11.2027 -
Juan Manuel Villalba Tigre Aktiv 122 / 124 40% 1 01.11.2027 -
Mauro Carrizo Atlético Tucumán Aktiv 97 / 101 40% 1 30.11.2026 -